createdAt,value
2019-03-17T00:00:42.476Z,99.90
2019-03-17T00:03:13.081Z,99.90
2019-03-17T00:05:43.750Z,99.90
2019-03-17T00:08:14.314Z,99.90
2019-03-17T00:10:45.028Z,99.90
2019-03-17T00:13:17.822Z,99.90
2019-03-17T00:15:47.963Z,99.90
2019-03-17T00:18:18.601Z,99.90
2019-03-17T00:20:49.238Z,99.90
2019-03-17T00:23:20.115Z,99.90
2019-03-17T00:25:50.733Z,99.90
2019-03-17T00:28:21.292Z,99.90
2019-03-17T00:30:51.884Z,99.90
2019-03-17T00:33:22.537Z,99.90
2019-03-17T00:35:53.171Z,99.90
2019-03-17T00:38:23.789Z,99.90
2019-03-17T00:40:54.411Z,99.90
2019-03-17T00:43:25.046Z,99.90
2019-03-17T00:45:55.722Z,99.90
2019-03-17T00:48:26.455Z,99.90
2019-03-17T00:50:57.183Z,99.90
2019-03-17T00:53:27.917Z,99.90
2019-03-17T00:55:58.546Z,99.90
2019-03-17T00:58:29.180Z,99.90
2019-03-17T01:00:59.767Z,99.90
2019-03-17T01:03:30.415Z,99.90
2019-03-17T01:06:01.018Z,99.90
2019-03-17T01:08:31.652Z,99.90
2019-03-17T01:11:02.284Z,99.90
2019-03-17T01:13:32.891Z,99.90
2019-03-17T01:16:03.500Z,99.90
2019-03-17T01:18:34.141Z,99.90
2019-03-17T01:21:04.717Z,99.90
2019-03-17T01:23:35.513Z,99.90
2019-03-17T01:26:06.130Z,99.90
2019-03-17T01:28:36.728Z,99.90
2019-03-17T01:31:07.319Z,99.90
2019-03-17T01:33:37.909Z,99.90
2019-03-17T01:36:08.553Z,99.90
2019-03-17T01:38:39.190Z,99.90
2019-03-17T01:41:09.799Z,99.90
2019-03-17T01:43:40.436Z,99.90
2019-03-17T01:46:11.046Z,99.90
2019-03-17T01:48:41.631Z,99.90
2019-03-17T01:51:12.233Z,99.90
2019-03-17T01:53:42.922Z,99.90
2019-03-17T01:56:13.547Z,99.90
2019-03-17T01:58:44.128Z,99.90
2019-03-17T02:01:15.096Z,99.90
2019-03-17T02:03:45.730Z,99.90
2019-03-17T02:06:16.315Z,99.90
2019-03-17T02:08:46.931Z,99.90
2019-03-17T02:11:17.560Z,99.90
2019-03-17T02:13:48.154Z,99.90
2019-03-17T02:16:18.763Z,99.90
2019-03-17T02:18:49.527Z,99.90
2019-03-17T02:21:20.131Z,99.90
2019-03-17T02:23:50.695Z,99.90
2019-03-17T02:26:21.298Z,99.90
2019-03-17T02:28:51.919Z,99.90
2019-03-17T02:31:22.587Z,99.90
2019-03-17T02:33:53.165Z,99.90
2019-03-17T02:36:23.752Z,99.90
2019-03-17T02:38:54.370Z,99.90
2019-03-17T02:41:24.955Z,99.90
2019-03-17T02:43:55.531Z,99.90
2019-03-17T02:46:26.134Z,99.90
2019-03-17T02:48:56.737Z,99.90
2019-03-17T02:51:27.337Z,99.90
2019-03-17T02:53:57.920Z,99.90
2019-03-17T02:56:28.554Z,99.90
2019-03-17T02:58:59.165Z,99.90
2019-03-17T03:01:30.790Z,99.90
2019-03-17T03:04:01.368Z,99.90
2019-03-17T03:06:31.962Z,99.90
2019-03-17T03:09:02.760Z,99.90
2019-03-17T03:11:33.399Z,99.90
2019-03-17T03:14:04.003Z,99.90
2019-03-17T03:16:34.854Z,99.90
2019-03-17T03:19:08.497Z,99.90
2019-03-17T03:21:39.152Z,99.90
2019-03-17T03:24:09.780Z,99.90
2019-03-17T03:26:40.356Z,99.90
2019-03-17T03:29:10.981Z,99.90
2019-03-17T03:31:41.600Z,99.90
2019-03-17T03:34:12.207Z,99.90
2019-03-17T03:36:42.801Z,99.90
2019-03-17T03:39:13.383Z,99.90
2019-03-17T03:41:44.024Z,99.90
2019-03-17T03:44:14.561Z,99.90
2019-03-17T03:46:45.250Z,99.90
2019-03-17T03:49:15.834Z,99.90
2019-03-17T03:51:46.426Z,99.90
2019-03-17T03:54:17.177Z,99.90
2019-03-17T03:56:47.745Z,99.90
2019-03-17T03:59:18.373Z,99.90
2019-03-17T04:01:49.206Z,99.90
2019-03-17T04:04:19.826Z,99.90
2019-03-17T04:06:50.401Z,99.90
2019-03-17T04:09:20.986Z,99.90
2019-03-17T04:11:51.649Z,99.90
2019-03-17T04:14:22.215Z,99.90
2019-03-17T04:16:52.815Z,99.90
2019-03-17T04:19:23.437Z,99.90
2019-03-17T04:21:54.048Z,99.90
2019-03-17T04:24:24.976Z,99.90
2019-03-17T04:26:55.951Z,99.90
2019-03-17T04:29:26.505Z,99.90
2019-03-17T04:31:58.022Z,99.90
2019-03-17T04:34:28.879Z,99.90
2019-03-17T04:36:59.543Z,99.90
2019-03-17T04:39:30.141Z,99.90
2019-03-17T04:42:00.694Z,99.90
2019-03-17T04:44:31.267Z,99.90
2019-03-17T04:47:01.884Z,99.90
2019-03-17T04:49:32.487Z,99.90
2019-03-17T04:52:03.178Z,99.90
2019-03-17T04:54:33.746Z,99.90
2019-03-17T04:57:04.360Z,99.90
2019-03-17T04:59:34.963Z,99.90
2019-03-17T05:02:05.524Z,99.90
2019-03-17T05:04:36.151Z,99.90
2019-03-17T05:07:06.749Z,99.90
2019-03-17T05:09:37.367Z,99.90
2019-03-17T05:12:08.122Z,99.90
2019-03-17T05:14:38.692Z,99.90
2019-03-17T05:17:09.300Z,99.90
2019-03-17T05:19:39.968Z,99.90
2019-03-17T05:22:10.965Z,99.90
2019-03-17T05:24:41.564Z,99.90
2019-03-17T05:27:12.149Z,99.90
2019-03-17T05:29:42.726Z,99.90
2019-03-17T05:32:13.329Z,99.90
2019-03-17T05:34:43.951Z,99.90
2019-03-17T05:37:14.530Z,99.90
2019-03-17T05:39:46.184Z,99.90
2019-03-17T05:42:16.745Z,99.90
2019-03-17T05:44:47.329Z,99.90
2019-03-17T05:47:17.931Z,99.90
2019-03-17T05:49:48.632Z,99.90
2019-03-17T05:52:19.218Z,99.90
2019-03-17T05:54:49.845Z,99.90
2019-03-17T05:57:20.441Z,99.90
2019-03-17T05:59:51.005Z,99.90
2019-03-17T06:02:21.655Z,99.90
2019-03-17T06:04:52.343Z,99.90
2019-03-17T06:07:23.208Z,99.90
2019-03-17T06:09:53.838Z,99.90
2019-03-17T06:12:24.495Z,99.90
2019-03-17T06:14:55.080Z,99.90
2019-03-17T06:17:25.742Z,99.90
2019-03-17T06:19:56.341Z,99.90
2019-03-17T06:22:26.951Z,99.90
2019-03-17T06:24:57.604Z,99.90
2019-03-17T06:27:28.204Z,99.90
2019-03-17T06:29:58.788Z,99.90
2019-03-17T06:32:30.385Z,99.90
2019-03-17T06:35:00.960Z,99.90
2019-03-17T06:37:31.588Z,99.90
2019-03-17T06:40:02.265Z,99.90
2019-03-17T06:42:32.851Z,99.90
2019-03-17T06:45:03.527Z,99.90
2019-03-17T06:47:34.155Z,99.90
2019-03-17T06:50:05.272Z,99.90
2019-03-17T06:52:35.948Z,99.90
2019-03-17T06:55:07.662Z,99.90
2019-03-17T06:57:38.274Z,99.90
2019-03-17T07:00:09.231Z,99.90
2019-03-17T07:02:39.850Z,99.90
2019-03-17T07:05:11.162Z,99.90
2019-03-17T07:07:44.515Z,99.90
2019-03-17T07:10:14.099Z,99.90
2019-03-17T07:12:44.717Z,99.90
2019-03-17T07:15:15.323Z,99.90
2019-03-17T07:17:45.948Z,99.90
2019-03-17T07:20:16.545Z,99.90
2019-03-17T07:22:47.201Z,99.90
2019-03-17T07:25:19.909Z,99.90
2019-03-17T07:27:50.513Z,99.90
2019-03-17T07:30:21.153Z,99.90
2019-03-17T07:32:51.739Z,99.90
2019-03-17T07:35:22.395Z,99.90
2019-03-17T07:37:57.141Z,99.90
2019-03-17T07:40:25.552Z,99.90
2019-03-17T07:42:56.214Z,99.90
2019-03-17T07:45:28.868Z,99.90
2019-03-17T07:47:59.500Z,99.90
2019-03-17T07:50:30.188Z,99.90
2019-03-17T07:53:00.821Z,99.90
2019-03-17T07:55:31.402Z,99.90
2019-03-17T07:58:02.046Z,99.90
2019-03-17T08:00:33.033Z,99.90
2019-03-17T08:03:03.608Z,99.90
2019-03-17T08:05:34.237Z,99.90
2019-03-17T08:08:09.710Z,99.90
2019-03-17T08:10:40.976Z,99.90
2019-03-17T08:13:11.643Z,99.90
2019-03-17T08:15:42.248Z,99.90
2019-03-17T08:18:12.914Z,99.90
2019-03-17T08:20:43.505Z,99.90
2019-03-17T08:23:14.165Z,99.90
2019-03-17T08:25:44.820Z,99.90
2019-03-17T08:28:15.470Z,99.90
2019-03-17T08:30:52.935Z,99.90
2019-03-17T08:33:18.593Z,99.90
2019-03-17T08:35:49.816Z,99.90
2019-03-17T08:38:22.174Z,99.90
2019-03-17T08:40:52.749Z,99.90
2019-03-17T08:43:23.383Z,99.90
2019-03-17T08:45:54.007Z,99.90
2019-03-17T08:48:24.615Z,99.40
2019-03-17T08:50:55.379Z,97.40
2019-03-17T08:53:25.993Z,95.30
2019-03-17T08:55:56.633Z,95.10
2019-03-17T08:58:27.328Z,88.70
2019-03-17T09:01:06.401Z,77.30
2019-03-17T09:03:37.081Z,76.00
2019-03-17T09:06:07.695Z,89.20
2019-03-17T09:08:38.414Z,74.00
2019-03-17T09:11:09.093Z,83.90
2019-03-17T09:13:40.216Z,80.40
2019-03-17T09:16:11.429Z,78.60
2019-03-17T09:18:42.628Z,64.60
2019-03-17T09:21:19.233Z,62.60
2019-03-17T09:23:50.046Z,74.80
2019-03-17T09:26:23.115Z,70.70
2019-03-17T09:28:56.291Z,67.40
2019-03-17T09:31:27.481Z,63.30
2019-03-17T09:33:58.109Z,60.70
2019-03-17T09:36:32.259Z,61.80
2019-03-17T09:39:01.714Z,65.70
2019-03-17T09:41:32.407Z,58.60
2019-03-17T09:44:03.101Z,56.60
2019-03-17T09:46:34.284Z,58.90
2019-03-17T09:49:05.771Z,73.80
2019-03-17T09:51:36.492Z,59.90
2019-03-17T09:54:07.364Z,59.50
2019-03-17T09:56:38.217Z,66.20
2019-03-17T09:59:09.229Z,58.10
2019-03-17T10:01:40.401Z,65.40
2019-03-17T10:04:14.075Z,61.00
2019-03-17T10:06:44.685Z,62.60
2019-03-17T10:09:15.265Z,69.80
2019-03-17T10:11:46.018Z,66.20
2019-03-17T10:14:16.855Z,70.60
2019-03-17T10:16:47.563Z,70.70
2019-03-17T10:19:18.235Z,64.00
2019-03-17T10:21:48.874Z,66.20
2019-03-17T10:24:19.531Z,65.60
2019-03-17T10:26:50.185Z,63.20
2019-03-17T10:29:20.880Z,70.90
2019-03-17T10:31:51.609Z,66.90
2019-03-17T10:34:22.312Z,69.80
2019-03-17T10:36:52.983Z,62.60
2019-03-17T10:39:23.657Z,64.90
2019-03-17T10:41:54.863Z,60.00
2019-03-17T10:44:27.578Z,65.70
2019-03-17T10:47:00.963Z,65.20
2019-03-17T10:49:32.151Z,65.00
2019-03-17T10:52:03.686Z,68.70
2019-03-17T10:54:35.180Z,60.70
2019-03-17T10:57:06.406Z,65.40
2019-03-17T10:59:37.697Z,56.70
2019-03-17T11:02:09.041Z,63.40
2019-03-17T11:04:40.233Z,65.00
2019-03-17T11:07:11.434Z,62.30
2019-03-17T11:09:42.596Z,61.30
2019-03-17T11:12:13.823Z,60.30
2019-03-17T11:14:45.597Z,64.60
2019-03-17T11:17:16.858Z,62.90
2019-03-17T11:19:48.115Z,60.30
2019-03-17T11:22:19.319Z,61.20
2019-03-17T11:24:50.615Z,60.40
2019-03-17T11:27:21.742Z,66.20
2019-03-17T11:29:53.005Z,59.20
2019-03-17T11:32:26.374Z,59.70
2019-03-17T11:34:57.637Z,62.70
2019-03-17T11:37:30.107Z,58.90
2019-03-17T11:40:04.994Z,59.70
2019-03-17T11:42:36.280Z,61.40
2019-03-17T11:45:09.710Z,62.50
2019-03-17T11:47:40.957Z,63.30
2019-03-17T11:50:13.018Z,64.90
2019-03-17T11:52:44.351Z,65.10
2019-03-17T11:55:16.030Z,65.30
2019-03-17T11:57:47.389Z,69.10
2019-03-17T12:00:18.765Z,64.20
2019-03-17T12:02:50.092Z,72.00
2019-03-17T12:05:21.330Z,70.50
2019-03-17T12:07:52.552Z,66.40
2019-03-17T12:10:23.778Z,66.90
2019-03-17T12:12:55.094Z,67.60
2019-03-17T12:15:25.959Z,73.80
2019-03-17T12:17:56.664Z,71.40
2019-03-17T12:20:27.324Z,72.50
2019-03-17T12:22:58.051Z,68.40
2019-03-17T12:25:29.282Z,72.00
2019-03-17T12:27:59.909Z,71.50
2019-03-17T12:30:30.501Z,74.20
2019-03-17T12:33:01.869Z,72.30
2019-03-17T12:35:36.709Z,74.80
2019-03-17T12:38:08.280Z,72.50
2019-03-17T12:40:39.509Z,68.40
2019-03-17T12:43:10.759Z,68.60
2019-03-17T12:45:41.324Z,66.80
2019-03-17T12:48:11.945Z,68.70
2019-03-17T12:50:43.652Z,70.50
2019-03-17T12:53:14.842Z,73.10
2019-03-17T12:55:45.449Z,73.30
2019-03-17T12:58:16.162Z,76.10
2019-03-17T13:00:47.348Z,76.50
2019-03-17T13:03:17.940Z,77.00
2019-03-17T13:05:48.606Z,80.70
2019-03-17T13:08:19.807Z,80.20
2019-03-17T13:10:52.210Z,83.70
2019-03-17T13:13:22.893Z,90.70
2019-03-17T13:15:53.491Z,89.70
2019-03-17T13:18:24.121Z,89.50
2019-03-17T13:20:54.763Z,91.20
2019-03-17T13:23:25.465Z,90.80
2019-03-17T13:25:56.098Z,94.40
2019-03-17T13:28:27.335Z,97.00
2019-03-17T13:30:58.437Z,95.60
2019-03-17T13:33:29.408Z,98.00
2019-03-17T13:36:00.787Z,99.90
2019-03-17T13:38:31.499Z,98.70
2019-03-17T13:41:02.065Z,99.90
2019-03-17T13:43:32.762Z,99.90
2019-03-17T13:46:03.430Z,99.90
2019-03-17T13:48:34.123Z,99.90
2019-03-17T13:51:04.777Z,99.90
2019-03-17T13:53:35.434Z,99.90
2019-03-17T13:56:06.344Z,99.90
2019-03-17T13:58:37.025Z,99.90
2019-03-17T14:01:07.626Z,99.90
2019-03-17T14:03:38.267Z,99.90
2019-03-17T14:06:08.950Z,99.90
2019-03-17T14:08:39.576Z,99.90
2019-03-17T14:11:10.190Z,99.90
2019-03-17T14:13:40.819Z,99.90
2019-03-17T14:16:12.124Z,99.90
2019-03-17T14:18:43.684Z,99.90
2019-03-17T14:21:14.623Z,99.90
2019-03-17T14:23:45.758Z,99.90
2019-03-17T14:26:16.843Z,99.90
2019-03-17T14:28:48.078Z,99.90
2019-03-17T14:31:19.129Z,99.90
2019-03-17T14:33:50.265Z,99.90
2019-03-17T14:36:21.299Z,99.90
2019-03-17T14:38:52.045Z,99.90
2019-03-17T14:41:22.725Z,99.90
2019-03-17T14:43:53.442Z,99.90
2019-03-17T14:46:24.186Z,99.90
2019-03-17T14:48:54.774Z,99.90
2019-03-17T14:51:25.381Z,99.90
2019-03-17T14:53:56.057Z,99.90
2019-03-17T14:56:26.721Z,99.90
2019-03-17T14:58:57.304Z,99.90
2019-03-17T15:01:27.958Z,99.90
2019-03-17T15:03:58.604Z,99.90
2019-03-17T15:06:29.206Z,99.90
2019-03-17T15:08:59.893Z,99.90
2019-03-17T15:11:30.480Z,99.90
2019-03-17T15:14:01.212Z,99.90
2019-03-17T15:16:31.835Z,99.90
2019-03-17T15:19:02.498Z,99.90
2019-03-17T15:21:33.132Z,99.90
2019-03-17T15:24:04.084Z,99.90
2019-03-17T15:26:34.894Z,99.90
2019-03-17T15:29:05.850Z,99.90
2019-03-17T15:31:36.453Z,99.90
2019-03-17T15:34:07.202Z,99.90
2019-03-17T15:36:37.870Z,99.90
2019-03-17T15:39:09.630Z,99.90
2019-03-17T15:41:40.266Z,99.90
2019-03-17T15:44:10.966Z,99.90
2019-03-17T15:46:41.753Z,99.90
2019-03-17T15:49:12.382Z,99.90
2019-03-17T15:51:43.104Z,99.90
2019-03-17T15:54:13.811Z,99.90
2019-03-17T15:56:44.566Z,99.90
2019-03-17T15:59:15.221Z,99.90
2019-03-17T16:01:45.906Z,99.90
2019-03-17T16:04:19.542Z,99.90
2019-03-17T16:06:48.941Z,99.90
2019-03-17T16:09:19.593Z,99.90
2019-03-17T16:11:50.239Z,99.90
2019-03-17T16:14:22.383Z,99.90
2019-03-17T16:16:53.185Z,99.90
2019-03-17T16:19:23.776Z,99.90
2019-03-17T16:21:54.501Z,99.90
2019-03-17T16:24:25.186Z,99.90
2019-03-17T16:26:55.804Z,99.90
2019-03-17T16:29:29.428Z,99.90
2019-03-17T16:32:00.126Z,99.90
2019-03-17T16:34:30.771Z,99.90
2019-03-17T16:37:01.428Z,99.90
2019-03-17T16:39:32.145Z,99.90
2019-03-17T16:42:02.848Z,99.90
2019-03-17T16:44:33.551Z,99.90
2019-03-17T16:47:04.242Z,99.90
2019-03-17T16:49:34.971Z,99.90
2019-03-17T16:52:05.653Z,99.90
2019-03-17T16:54:36.252Z,99.90
2019-03-17T16:57:07.093Z,99.90
2019-03-17T16:59:37.962Z,99.90
2019-03-17T17:02:08.578Z,99.90
2019-03-17T17:04:39.301Z,99.90
2019-03-17T17:07:09.949Z,99.90
2019-03-17T17:09:40.648Z,99.90
2019-03-17T17:12:11.389Z,99.90
2019-03-17T17:14:44.997Z,99.90
2019-03-17T17:17:15.728Z,99.90
2019-03-17T17:19:46.451Z,99.90
2019-03-17T17:22:18.943Z,99.90
2019-03-17T17:25:09.008Z,99.90
2019-03-17T17:27:39.701Z,99.90
2019-03-17T17:30:16.963Z,99.90
2019-03-17T17:32:47.748Z,99.90
2019-03-17T17:35:18.388Z,99.90
2019-03-17T17:37:51.035Z,99.90
2019-03-17T17:40:21.719Z,99.90
2019-03-17T17:42:52.447Z,99.90
2019-03-17T17:45:23.081Z,99.90
2019-03-17T17:47:53.703Z,99.90
2019-03-17T17:50:26.772Z,99.90
2019-03-17T17:52:57.736Z,99.90
2019-03-17T17:55:28.450Z,99.90
2019-03-17T17:57:59.201Z,99.90
2019-03-17T18:00:32.717Z,99.90
2019-03-17T18:03:03.395Z,99.90
2019-03-17T18:05:34.103Z,99.90
2019-03-17T18:08:04.740Z,99.90
2019-03-17T18:10:35.379Z,99.90
2019-03-17T18:13:06.105Z,99.90
2019-03-17T18:15:36.811Z,99.90
2019-03-17T18:18:07.548Z,99.90
2019-03-17T18:20:38.187Z,99.90
2019-03-17T18:23:17.963Z,99.90
2019-03-17T18:25:41.223Z,99.90
2019-03-17T18:28:11.874Z,99.90
2019-03-17T18:30:42.613Z,99.90
2019-03-17T18:33:13.238Z,99.90
2019-03-17T18:35:43.894Z,99.90
2019-03-17T18:38:14.578Z,99.90
2019-03-17T18:40:45.329Z,99.90
2019-03-17T18:43:15.969Z,99.90
2019-03-17T18:45:46.720Z,99.90
2019-03-17T18:48:17.641Z,99.90
2019-03-17T18:50:48.381Z,99.90
2019-03-17T18:53:19.089Z,99.90
2019-03-17T18:55:49.755Z,99.90
2019-03-17T18:58:20.354Z,99.90
2019-03-17T19:00:51.009Z,99.90
2019-03-17T19:03:21.647Z,99.90
2019-03-17T19:05:52.328Z,99.90
2019-03-17T19:08:22.997Z,99.90
2019-03-17T19:10:53.575Z,99.90
2019-03-17T19:13:24.254Z,99.90
2019-03-17T19:15:58.320Z,99.90
2019-03-17T19:18:28.996Z,99.90
2019-03-17T19:20:59.833Z,99.90
2019-03-17T19:23:30.553Z,99.90
2019-03-17T19:26:01.298Z,99.90
2019-03-17T19:28:31.955Z,99.90
2019-03-17T19:31:02.697Z,99.90
2019-03-17T19:33:36.133Z,99.90
2019-03-17T19:36:05.746Z,99.90
2019-03-17T19:38:36.421Z,99.90
2019-03-17T19:41:07.077Z,99.90
2019-03-17T19:43:37.795Z,99.90
2019-03-17T19:46:08.558Z,99.90
2019-03-17T19:48:39.302Z,99.90
2019-03-17T19:51:09.982Z,99.90
2019-03-17T19:53:40.617Z,99.90
2019-03-17T19:56:11.273Z,99.90
2019-03-17T19:58:42.040Z,99.90
2019-03-17T20:01:12.641Z,99.90
2019-03-17T20:03:43.279Z,99.90
2019-03-17T20:06:14.052Z,99.90
2019-03-17T20:08:44.665Z,99.90
2019-03-17T20:11:15.431Z,99.90
2019-03-17T20:13:46.570Z,99.90
2019-03-17T20:16:19.854Z,99.90
2019-03-17T20:18:53.560Z,99.90
2019-03-17T20:21:24.347Z,99.90
2019-03-17T20:23:55.084Z,99.90
2019-03-17T20:26:26.173Z,99.90
2019-03-17T20:28:56.875Z,99.90
2019-03-17T20:31:27.649Z,99.90
2019-03-17T20:33:58.246Z,99.90
2019-03-17T20:36:29.072Z,99.90
2019-03-17T20:38:59.780Z,99.90
2019-03-17T20:41:30.488Z,99.90
2019-03-17T20:44:01.146Z,99.90
2019-03-17T20:46:31.806Z,99.90
2019-03-17T20:49:02.508Z,99.90
2019-03-17T20:51:33.170Z,99.90
2019-03-17T20:54:03.880Z,99.90
2019-03-17T20:56:34.568Z,99.90
2019-03-17T20:59:05.307Z,99.90
2019-03-17T21:01:35.958Z,99.90
2019-03-17T21:04:06.654Z,99.90
2019-03-17T21:06:37.326Z,99.90
2019-03-17T21:09:09.578Z,99.90
2019-03-17T21:11:40.216Z,99.90
2019-03-17T21:14:10.864Z,99.90
2019-03-17T21:16:41.510Z,99.90
2019-03-17T21:19:12.159Z,99.90
2019-03-17T21:21:42.825Z,99.90
2019-03-17T21:24:13.593Z,99.90
2019-03-17T21:26:44.216Z,99.90
2019-03-17T21:29:18.453Z,99.90
2019-03-17T21:31:49.147Z,99.90
2019-03-17T21:34:19.791Z,99.90
2019-03-17T21:36:50.432Z,99.90
2019-03-17T21:39:21.189Z,99.90
2019-03-17T21:41:51.935Z,99.90
2019-03-17T21:44:22.559Z,99.90
2019-03-17T21:46:53.219Z,99.90
2019-03-17T21:49:23.839Z,99.90
2019-03-17T21:51:54.441Z,99.90
2019-03-17T21:54:25.174Z,99.90
2019-03-17T21:56:55.805Z,99.90
2019-03-17T21:59:26.460Z,99.90
2019-03-17T22:01:57.487Z,99.90
2019-03-17T22:04:28.121Z,99.90
2019-03-17T22:06:59.547Z,99.90
2019-03-17T22:09:30.353Z,99.90
2019-03-17T22:12:01.103Z,99.90
2019-03-17T22:14:32.193Z,99.90
2019-03-17T22:17:02.837Z,99.90
2019-03-17T22:19:33.442Z,99.90
2019-03-17T22:22:04.091Z,99.90
2019-03-17T22:24:34.689Z,99.90
2019-03-17T22:27:05.343Z,99.90
2019-03-17T22:29:36.021Z,99.90
2019-03-17T22:32:06.667Z,99.90
2019-03-17T22:34:37.278Z,99.90
2019-03-17T22:37:07.965Z,99.90
2019-03-17T22:39:38.619Z,99.90
2019-03-17T22:42:09.215Z,99.90
2019-03-17T22:44:39.778Z,99.90
2019-03-17T22:47:10.534Z,99.90
2019-03-17T22:49:41.150Z,99.90
2019-03-17T22:52:11.762Z,99.90
2019-03-17T22:54:42.403Z,99.90
2019-03-17T22:57:13.075Z,99.90
2019-03-17T22:59:43.809Z,99.90
2019-03-17T23:02:14.440Z,99.90
2019-03-17T23:04:45.390Z,99.90
2019-03-17T23:07:16.049Z,99.90
2019-03-17T23:09:46.737Z,99.90
2019-03-17T23:12:17.322Z,99.90
2019-03-17T23:14:47.939Z,99.90
2019-03-17T23:17:18.578Z,99.90
2019-03-17T23:19:49.225Z,99.90
2019-03-17T23:22:19.836Z,99.90
2019-03-17T23:24:50.959Z,99.90
2019-03-17T23:27:21.551Z,99.90
2019-03-17T23:29:52.153Z,99.90
2019-03-17T23:32:22.781Z,99.90
2019-03-17T23:34:53.370Z,99.90
2019-03-17T23:37:23.985Z,99.90
2019-03-17T23:39:54.620Z,99.90
2019-03-17T23:42:25.232Z,99.90
2019-03-17T23:44:55.858Z,99.90
2019-03-17T23:47:26.538Z,99.90
2019-03-17T23:49:57.218Z,99.90
2019-03-17T23:52:27.854Z,99.90
2019-03-17T23:54:58.528Z,99.90
2019-03-17T23:57:29.086Z,99.90
2019-03-17T23:59:59.773Z,99.90
